Time;durP1;ratioP1;P1;durP2;ratioP2;P2;SDS_P1;SDS_P2;PMS_P1;PMS_P2;Temp;Humidity;BMP_temperature;BMP_pressure;BME280_temperature;BME280_humidity;BME280_pressure;Samples;Min_cycle;Max_cycle;Signal;HPM_P1;HPM_P2
2022/06/27 00:02:11;;;;;;;6.50;2.50;;;20.00;99.90;;;;;;5077844;28;20143;-64
2022/06/27 00:04:37;;;;;;;4.07;2.35;;;20.10;99.90;;;;;;5077744;28;20402;-65
2022/06/27 00:07:02;;;;;;;5.10;2.50;;;20.20;99.90;;;;;;5077658;28;20044;-65
2022/06/27 00:09:28;;;;;;;4.05;2.30;;;20.10;99.90;;;;;;5077561;28;20315;-65
2022/06/27 00:11:55;;;;;;;5.55;2.33;;;20.10;99.90;;;;;;5077594;28;20020;-65
2022/06/27 00:14:21;;;;;;;5.95;2.40;;;20.10;99.90;;;;;;5060014;28;20285;-65
2022/06/27 00:16:47;;;;;;;2.97;1.98;;;20.00;99.90;;;;;;5060614;28;20036;-66
2022/06/27 00:19:13;;;;;;;5.55;2.33;;;20.00;99.90;;;;;;5077543;28;20037;-66
2022/06/27 00:21:39;;;;;;;6.22;2.85;;;20.00;99.90;;;;;;5077810;28;20028;-65
2022/06/27 00:24:05;;;;;;;4.65;2.33;;;20.10;99.90;;;;;;5077585;28;20025;-65
2022/06/27 00:26:31;;;;;;;3.22;2.13;;;20.10;99.90;;;;;;5077217;28;20075;-65
2022/06/27 00:28:57;;;;;;;3.28;2.33;;;20.10;99.90;;;;;;5077314;28;20028;-65
2022/06/27 00:31:22;;;;;;;5.20;2.35;;;20.00;99.90;;;;;;5077395;28;20395;-65
2022/06/27 00:33:48;;;;;;;4.43;2.30;;;20.00;99.90;;;;;;5077491;28;20029;-65
2022/06/27 00:36:14;;;;;;;3.65;2.40;;;20.00;99.90;;;;;;5060407;28;20036;-65
2022/06/27 00:38:40;;;;;;;4.15;2.53;;;19.90;99.90;;;;;;5077646;28;20471;-66
2022/06/27 00:41:06;;;;;;;4.05;2.50;;;19.90;99.90;;;;;;5077085;28;20039;-65
2022/06/27 00:43:32;;;;;;;3.42;2.00;;;19.80;99.90;;;;;;5060343;28;20128;-65
2022/06/27 00:45:58;;;;;;;8.20;2.47;;;19.70;99.90;;;;;;5077072;28;20029;-65
2022/06/27 00:48:25;;;;;;;2.65;2.13;;;19.70;99.90;;;;;;5059487;28;20020;-65
2022/06/27 00:50:51;;;;;;;5.28;2.38;;;19.70;99.90;;;;;;5059489;28;20051;-66
2022/06/27 00:53:17;;;;;;;4.53;2.40;;;19.50;99.90;;;;;;5076966;28;20046;-66
2022/06/27 00:55:44;;;;;;;3.28;2.20;;;19.50;99.90;;;;;;5077482;28;20380;-65
2022/06/27 00:58:10;;;;;;;3.40;2.42;;;19.40;99.90;;;;;;5059477;28;20096;-65
2022/06/27 01:00:36;;;;;;;4.93;2.50;;;19.50;99.90;;;;;;5076875;28;20123;-65
2022/06/27 01:03:02;;;;;;;3.47;2.40;;;19.50;99.90;;;;;;5059558;28;20400;-66
2022/06/27 01:05:27;;;;;;;6.25;2.20;;;19.40;99.90;;;;;;5059403;28;20357;-66
2022/06/27 01:07:54;;;;;;;4.88;2.30;;;19.10;99.90;;;;;;5076816;28;20115;-66
2022/06/27 01:10:19;;;;;;;6.30;2.95;;;18.90;99.90;;;;;;5059345;28;20029;-65
2022/06/27 01:12:47;;;;;;;2.88;2.42;;;19.00;99.90;;;;;;5076045;28;20396;-65
2022/06/27 01:15:13;;;;;;;4.38;2.40;;;19.10;99.90;;;;;;5076678;28;20031;-65
2022/06/27 01:17:39;;;;;;;5.35;2.78;;;19.10;99.90;;;;;;5076719;28;20029;-65
2022/06/27 01:20:06;;;;;;;4.18;2.30;;;19.10;99.90;;;;;;5059317;28;20469;-65
2022/06/27 01:22:34;;;;;;;3.00;2.10;;;19.10;99.90;;;;;;5042834;28;20079;-65
2022/06/27 01:25:00;;;;;;;5.13;2.83;;;19.10;99.90;;;;;;5076648;28;20056;-65
2022/06/27 01:27:26;;;;;;;4.93;2.72;;;19.10;99.90;;;;;;5076421;28;20040;-65
2022/06/27 01:29:52;;;;;;;5.03;2.80;;;19.10;99.90;;;;;;5076535;28;20036;-65
2022/06/27 01:32:18;;;;;;;3.08;2.10;;;19.00;99.90;;;;;;5076787;28;20020;-65
2022/06/27 01:34:44;;;;;;;3.88;2.38;;;19.00;99.90;;;;;;5076744;28;20020;-65
2022/06/27 01:37:09;;;;;;;4.20;2.30;;;19.00;99.90;;;;;;5076419;28;20089;-65
2022/06/27 01:39:40;;;;;;;4.63;2.50;;;19.00;99.90;;;;;;5059000;28;20085;-65
2022/06/27 01:42:09;;;;;;;3.42;2.83;;;18.90;99.90;;;;;;5059152;28;20025;-65
2022/06/27 01:44:35;;;;;;;4.10;2.85;;;19.00;99.90;;;;;;5058910;28;20036;-64
2022/06/27 01:47:10;;;;;;;5.15;2.97;;;18.90;99.90;;;;;;5058879;28;20036;-65
2022/06/27 01:49:43;;;;;;;3.35;2.72;;;18.90;99.90;;;;;;5058867;28;20405;-64
2022/06/27 01:52:13;;;;;;;3.08;2.30;;;18.90;99.90;;;;;;5058859;28;20297;-64
2022/06/27 01:54:39;;;;;;;3.67;2.70;;;18.70;99.90;;;;;;5058861;28;20170;-64
2022/06/27 01:57:07;;;;;;;5.47;2.80;;;18.70;99.90;;;;;;5058943;28;20098;-65
2022/06/27 01:59:35;;;;;;;3.35;2.65;;;18.60;99.90;;;;;;5058808;28;20273;-65
2022/06/27 02:02:06;;;;;;;5.45;2.95;;;18.50;99.90;;;;;;5058912;28;20028;-65
2022/06/27 02:04:34;;;;;;;7.80;3.13;;;18.50;99.90;;;;;;5058893;28;20411;-65
2022/06/27 02:07:01;;;;;;;4.68;2.90;;;18.40;99.90;;;;;;5076566;28;20044;-64
2022/06/27 02:09:27;;;;;;;3.17;2.88;;;18.60;99.90;;;;;;5058661;28;20397;-66
2022/06/27 02:11:56;;;;;;;5.68;3.22;;;18.50;99.90;;;;;;5076581;28;20036;-65
2022/06/27 02:14:24;;;;;;;5.47;3.22;;;18.50;99.90;;;;;;5058875;28;20146;-65
2022/06/27 02:16:50;;;;;;;7.70;3.22;;;18.60;99.90;;;;;;5059074;28;20032;-64
2022/06/27 02:19:18;;;;;;;6.45;3.30;;;18.60;99.90;;;;;;5042113;28;20033;-65
2022/06/27 02:21:45;;;;;;;7.30;3.20;;;18.50;99.90;;;;;;5076245;28;20025;-65
2022/06/27 02:24:12;;;;;;;4.97;3.33;;;18.50;99.90;;;;;;5079188;28;20100;-63
2022/06/27 02:26:40;;;;;;;5.43;3.40;;;18.50;99.90;;;;;;5062289;28;20056;-66
2022/06/27 02:29:06;;;;;;;4.50;3.10;;;18.30;99.90;;;;;;5079694;28;20048;-66
2022/06/27 02:31:33;;;;;;;4.35;3.10;;;18.20;99.90;;;;;;5079810;28;20033;-65
2022/06/27 02:33:59;;;;;;;6.35;2.97;;;18.10;99.90;;;;;;5062441;28;20024;-66
2022/06/27 02:36:31;;;;;;;3.65;3.35;;;18.00;99.90;;;;;;5079503;28;20127;-64
2022/06/27 02:38:59;;;;;;;4.85;3.40;;;18.00;99.90;;;;;;5079545;28;20032;-65
2022/06/27 02:41:28;;;;;;;3.78;3.35;;;17.90;99.90;;;;;;5062345;28;20086;-65
2022/06/27 02:44:02;;;;;;;5.28;3.58;;;17.80;99.90;;;;;;5079437;28;20047;-65
2022/06/27 02:46:30;;;;;;;4.25;3.30;;;17.80;99.90;;;;;;5079836;28;20032;-65
2022/06/27 02:48:56;;;;;;;3.88;3.28;;;17.70;99.90;;;;;;5079787;28;20024;-65
2022/06/27 02:51:25;;;;;;;3.95;3.22;;;17.60;99.90;;;;;;5061651;28;20423;-65
2022/06/27 02:54:11;;;;;;;3.92;3.35;;;17.60;99.90;;;;;;5079141;28;20028;-65
2022/06/27 02:56:56;;;;;;;5.43;3.85;;;17.50;99.90;;;;;;5061850;28;20029;-65
2022/06/27 02:59:27;;;;;;;4.53;3.53;;;17.50;99.90;;;;;;5079275;28;20024;-65
2022/06/27 03:01:56;;;;;;;3.95;3.65;;;17.50;99.90;;;;;;5061624;28;20342;-65
2022/06/27 03:04:33;;;;;;;3.90;3.50;;;17.40;99.90;;;;;;5061645;28;20106;-66
2022/06/27 03:06:58;;;;;;;4.47;3.67;;;17.50;99.90;;;;;;5061512;28;20032;-66
2022/06/27 03:09:24;;;;;;;7.53;3.78;;;17.30;99.90;;;;;;5061356;28;20039;-65
2022/06/27 03:11:51;;;;;;;5.20;4.47;;;17.40;99.90;;;;;;5045484;28;20300;-65
2022/06/27 03:14:17;;;;;;;7.10;4.10;;;17.30;99.90;;;;;;5061372;28;20115;-65
2022/06/27 03:16:43;;;;;;;6.75;4.60;;;17.40;99.90;;;;;;5078775;28;20048;-64
2022/06/27 03:19:09;;;;;;;6.65;3.97;;;17.30;99.90;;;;;;5061393;28;20052;-64
2022/06/27 03:21:44;;;;;;;4.50;4.05;;;17.30;99.90;;;;;;5061175;28;20131;-65
2022/06/27 03:24:10;;;;;;;5.30;3.90;;;17.30;99.90;;;;;;5044664;28;20067;-65
2022/06/27 03:26:41;;;;;;;6.78;3.92;;;17.20;99.90;;;;;;5078586;28;20040;-65
2022/06/27 03:29:07;;;;;;;6.43;3.72;;;17.30;99.90;;;;;;5061200;28;20028;-65
2022/06/27 03:31:35;;;;;;;6.75;3.97;;;17.30;99.90;;;;;;5060818;28;20029;-65
2022/06/27 03:34:04;;;;;;;5.88;3.92;;;17.40;99.90;;;;;;5044343;28;20039;-65
2022/06/27 03:36:34;;;;;;;7.28;4.35;;;17.30;99.90;;;;;;5060871;28;20082;-64
2022/06/27 03:39:01;;;;;;;7.55;4.47;;;17.30;99.90;;;;;;5060791;28;20029;-65
2022/06/27 03:41:27;;;;;;;7.47;4.40;;;17.30;99.90;;;;;;5060619;28;20040;-65
2022/06/27 03:43:53;;;;;;;4.93;4.20;;;17.40;99.90;;;;;;5060728;28;20036;-64
2022/06/27 03:46:19;;;;;;;5.25;4.38;;;17.40;99.90;;;;;;5060692;28;20109;-64
2022/06/27 03:51:59;;;;;;;5.38;4.25;;;17.60;99.90;;;;;;5057303;28;20412;-64
2022/06/27 03:54:25;;;;;;;4.55;4.00;;;17.40;99.90;;;;;;5078455;28;20056;-64
2022/06/27 03:56:52;;;;;;;6.35;4.50;;;17.40;99.90;;;;;;5043751;28;20431;-65
2022/06/27 03:59:17;;;;;;;5.72;4.20;;;17.40;99.90;;;;;;5060162;28;20453;-64
2022/06/27 04:01:43;;;;;;;4.95;4.47;;;17.40;99.90;;;;;;5060324;28;20040;-64
2022/06/27 04:04:10;;;;;;;4.97;4.38;;;17.40;99.90;;;;;;5060472;28;20028;-66
2022/06/27 04:06:36;;;;;;;6.25;4.18;;;17.50;99.90;;;;;;5060222;28;20090;-63
2022/06/27 04:09:02;;;;;;;8.35;5.00;;;17.50;99.90;;;;;;5060190;28;20404;-64
2022/06/27 04:11:28;;;;;;;5.95;4.80;;;17.50;99.90;;;;;;5043658;28;20098;-64
2022/06/27 04:13:57;;;;;;;6.53;4.10;;;17.40;99.90;;;;;;5060326;28;20029;-64
2022/06/27 04:16:41;;;;;;;5.80;4.22;;;17.40;99.90;;;;;;5048920;28;20064;-65
2022/06/27 04:19:25;;;;;;;4.85;4.35;;;17.50;99.90;;;;;;5077504;28;20094;-65
2022/06/27 04:22:16;;;;;;;5.82;3.97;;;17.50;99.90;;;;;;5060141;28;20040;-64
2022/06/27 04:24:56;;;;;;;6.97;3.75;;;17.50;99.90;;;;;;5077650;28;20134;-64
2022/06/27 04:27:41;;;;;;;6.47;4.30;;;17.50;99.90;;;;;;5056538;28;20474;-64
2022/06/27 04:30:08;;;;;;;8.27;4.45;;;17.50;99.90;;;;;;5056412;28;20033;-63
2022/06/27 04:32:34;;;;;;;5.53;4.40;;;17.40;99.90;;;;;;5056488;28;20309;-63
2022/06/27 04:35:01;;;;;;;9.57;4.53;;;17.50;99.90;;;;;;5056440;28;20040;-64
2022/06/27 04:37:27;;;;;;;6.03;4.55;;;17.40;99.90;;;;;;5056276;28;20044;-64
2022/06/27 04:40:13;;;;;;;5.93;4.43;;;17.40;99.90;;;;;;5057233;28;20083;-64
2022/06/27 04:42:41;;;;;;;6.28;4.68;;;17.40;99.90;;;;;;5039697;28;20037;-64
2022/06/27 04:45:12;;;;;;;7.32;4.65;;;17.40;99.90;;;;;;5056783;28;20033;-65
2022/06/27 04:47:43;;;;;;;6.72;4.88;;;17.30;99.90;;;;;;5055501;28;20029;-64
2022/06/27 04:50:18;;;;;;;4.88;4.40;;;17.30;99.90;;;;;;5056762;28;20112;-65
2022/06/27 04:52:45;;;;;;;5.97;4.97;;;17.50;99.90;;;;;;5056036;28;20075;-65
2022/06/27 04:55:12;;;;;;;5.03;4.50;;;17.80;99.90;;;;;;5056287;28;20196;-65
2022/06/27 04:57:42;;;;;;;6.07;4.30;;;17.70;99.90;;;;;;5056114;28;20147;-65
2022/06/27 05:00:11;;;;;;;9.10;4.93;;;17.90;99.90;;;;;;5056042;28;20040;-66
2022/06/27 05:02:55;;;;;;;5.65;4.85;;;18.00;99.90;;;;;;5057170;28;20134;-65
2022/06/27 05:05:22;;;;;;;5.68;4.80;;;18.20;99.90;;;;;;5056034;28;20032;-65
2022/06/27 05:07:48;;;;;;;7.28;4.85;;;18.30;99.90;;;;;;5055859;28;20304;-65
2022/06/27 05:10:13;;;;;;;5.07;4.22;;;18.50;99.90;;;;;;5056714;28;20051;-64
2022/06/27 05:12:39;;;;;;;5.57;4.22;;;18.50;99.90;;;;;;5056672;28;20365;-64
2022/06/27 05:15:06;;;;;;;7.30;5.00;;;18.60;99.90;;;;;;5055913;28;20029;-66
2022/06/27 05:17:32;;;;;;;8.57;5.13;;;18.60;99.90;;;;;;5039345;28;20104;-66
2022/06/27 05:19:58;;;;;;;5.03;4.30;;;18.70;99.90;;;;;;5056116;28;20048;-66
2022/06/27 05:22:24;;;;;;;6.40;5.20;;;18.70;99.90;;;;;;5056541;28;20025;-66
2022/06/27 05:24:50;;;;;;;5.72;4.88;;;18.80;99.90;;;;;;5056408;28;20135;-66
2022/06/27 05:27:17;;;;;;;8.48;5.18;;;18.90;99.90;;;;;;5071894;28;20064;-66
2022/06/27 05:29:44;;;;;;;7.20;6.25;;;18.80;99.90;;;;;;5059785;28;20043;-64
2022/06/27 05:32:10;;;;;;;6.25;5.60;;;18.50;99.90;;;;;;5059054;28;20052;-66
2022/06/27 05:34:37;;;;;;;7.07;5.55;;;18.20;99.90;;;;;;5059053;28;20039;-66
2022/06/27 05:37:05;;;;;;;8.23;5.88;;;18.00;99.90;;;;;;5076760;28;20032;-66
2022/06/27 05:39:33;;;;;;;6.80;5.97;;;18.20;99.90;;;;;;5058868;28;20039;-65
2022/06/27 05:41:59;;;;;;;11.50;6.25;;;18.50;99.90;;;;;;5076337;28;20025;-64
2022/06/27 05:44:27;;;;;;;12.57;5.97;;;18.60;99.90;;;;;;5059177;28;20032;-65
2022/06/27 05:46:56;;;;;;;14.10;5.70;;;18.60;99.90;;;;;;5058867;28;20029;-65
2022/06/27 05:49:44;;;;;;;10.55;6.20;;;18.40;99.90;;;;;;5035688;28;20066;-65
2022/06/27 05:52:10;;;;;;;10.23;5.47;;;18.50;99.90;;;;;;5059022;28;20037;-66
2022/06/27 05:54:37;;;;;;;8.73;5.38;;;18.50;99.90;;;;;;5058952;28;20028;-66
2022/06/27 05:57:05;;;;;;;8.27;5.13;;;18.70;99.90;;;;;;5058698;28;20047;-65
2022/06/27 05:59:33;;;;;;;9.38;5.47;;;18.70;99.90;;;;;;5080069;28;20048;-65
2022/06/27 06:02:01;;;;;;;9.95;5.18;;;18.70;99.90;;;;;;5062586;28;20062;-65
2022/06/27 06:04:32;;;;;;;9.43;5.65;;;18.80;99.90;;;;;;5062643;28;20055;-66
2022/06/27 06:06:59;;;;;;;8.02;4.70;;;18.80;99.90;;;;;;5062537;28;20020;-65
2022/06/27 06:09:25;;;;;;;7.72;4.85;;;18.80;99.90;;;;;;5062282;28;20033;-67
2022/06/27 06:11:52;;;;;;;10.32;5.50;;;19.10;99.90;;;;;;5062758;28;20085;-66
2022/06/27 06:14:19;;;;;;;10.07;5.25;;;19.30;99.90;;;;;;5062453;28;20025;-65
2022/06/27 06:16:47;;;;;;;9.25;5.28;;;19.30;99.90;;;;;;5045994;28;20106;-66
2022/06/27 06:19:13;;;;;;;8.02;5.15;;;19.40;99.90;;;;;;5045850;28;20040;-66
2022/06/27 06:21:40;;;;;;;7.82;4.85;;;19.40;99.90;;;;;;5079720;28;20119;-65
2022/06/27 06:24:06;;;;;;;12.48;3.65;;;19.40;99.90;;;;;;5079663;28;20071;-65
2022/06/27 06:26:33;;;;;;;9.93;4.57;;;19.40;99.90;;;;;;5062047;28;20110;-66
2022/06/27 06:29:11;;;;;;;7.32;4.63;;;19.60;99.90;;;;;;5079689;28;20025;-65
2022/06/27 06:31:40;;;;;;;11.00;4.70;;;19.60;99.90;;;;;;5062028;28;20029;-66
2022/06/27 06:34:08;;;;;;;8.20;4.60;;;19.70;99.90;;;;;;5062125;28;20029;-68
2022/06/27 06:36:35;;;;;;;7.80;4.38;;;19.80;99.90;;;;;;5061956;28;20036;-66
2022/06/27 06:39:02;;;;;;;7.97;4.20;;;19.80;99.90;;;;;;5079414;28;20036;-65
2022/06/27 06:41:28;;;;;;;6.57;3.63;;;19.70;99.90;;;;;;5062021;28;20032;-66
2022/06/27 06:43:54;;;;;;;21.52;5.53;;;19.80;99.90;;;;;;5061929;28;20036;-66
2022/06/27 06:46:35;;;;;;;21.30;5.13;;;19.70;99.90;;;;;;5047583;28;20439;-66
2022/06/27 06:49:06;;;;;;;19.10;4.97;;;19.70;99.90;;;;;;5061960;28;20032;-66
2022/06/27 06:51:36;;;;;;;8.82;4.22;;;19.70;99.90;;;;;;5079123;28;20040;-66
2022/06/27 06:54:07;;;;;;;14.65;3.97;;;19.70;99.90;;;;;;5079499;28;20213;-66
2022/06/27 06:56:34;;;;;;;5.13;3.15;;;20.00;99.90;;;;;;5079219;28;20032;-66
2022/06/27 06:59:01;;;;;;;9.55;3.90;;;20.20;99.90;;;;;;5079274;28;20028;-66
2022/06/27 07:01:27;;;;;;;7.55;3.83;;;20.50;99.90;;;;;;5078936;28;20032;-66
2022/06/27 07:03:57;;;;;;;5.45;2.95;;;20.50;99.90;;;;;;5078942;28;20372;-65
2022/06/27 07:06:25;;;;;;;6.65;2.92;;;20.40;99.90;;;;;;5078919;28;20032;-64
2022/06/27 07:08:55;;;;;;;5.82;2.80;;;20.10;99.90;;;;;;5078637;28;20074;-65
2022/06/27 07:11:27;;;;;;;9.05;3.22;;;19.90;99.90;;;;;;5078443;28;20032;-64
2022/06/27 07:13:55;;;;;;;7.88;3.05;;;19.60;99.90;;;;;;5078978;28;20037;-66
2022/06/27 07:16:21;;;;;;;5.78;2.80;;;19.20;99.90;;;;;;5078917;28;20021;-65
2022/06/27 07:18:48;;;;;;;6.47;2.97;;;19.10;99.90;;;;;;5061564;28;20051;-66
2022/06/27 07:21:21;;;;;;;6.95;3.40;;;19.30;99.90;;;;;;5078708;28;20037;-65
2022/06/27 07:23:48;;;;;;;11.38;3.20;;;19.40;99.90;;;;;;5079052;28;20289;-66
2022/06/27 07:26:18;;;;;;;8.13;3.22;;;19.20;99.90;;;;;;5078514;28;20072;-65
2022/06/27 07:28:45;;;;;;;8.38;2.70;;;19.40;99.90;;;;;;5078633;28;20289;-66
2022/06/27 07:31:13;;;;;;;7.82;3.17;;;19.50;99.90;;;;;;5078561;28;20029;-66
2022/06/27 07:33:41;;;;;;;6.32;2.90;;;19.40;99.90;;;;;;5078583;28;20029;-66
2022/06/27 07:36:08;;;;;;;6.78;2.95;;;19.60;99.90;;;;;;5078526;28;20040;-65
2022/06/27 07:38:38;;;;;;;7.78;3.10;;;19.80;99.90;;;;;;5060977;28;20384;-66
2022/06/27 07:41:09;;;;;;;6.68;3.20;;;19.90;99.90;;;;;;5079010;28;20097;-66
2022/06/27 07:43:35;;;;;;;5.57;2.95;;;19.90;99.90;;;;;;5078249;28;20032;-65
2022/06/27 07:46:02;;;;;;;12.10;3.60;;;19.90;99.90;;;;;;5078281;28;20295;-66
2022/06/27 07:48:29;;;;;;;6.95;3.60;;;20.10;99.90;;;;;;5078173;28;20048;-65
2022/06/27 07:50:58;;;;;;;8.95;3.47;;;20.20;99.90;;;;;;5078127;28;20040;-65
2022/06/27 07:53:25;;;;;;;7.80;3.60;;;20.40;99.90;;;;;;5078068;28;20349;-65
2022/06/27 07:55:57;;;;;;;8.00;3.40;;;20.50;99.90;;;;;;5060792;28;20017;-65
2022/06/27 07:58:30;;;;;;;10.38;3.90;;;20.80;99.90;;;;;;5060516;28;20029;-65
2022/06/27 08:00:58;;;;;;;14.30;3.80;;;21.30;99.90;;;;;;5061308;28;20089;-65
2022/06/27 08:03:36;;;;;;;10.88;3.65;;;21.40;99.90;;;;;;5077965;28;20078;-65
2022/06/27 08:06:09;;;;;;;6.63;3.10;;;21.80;99.90;;;;;;5060706;28;20105;-66
2022/06/27 08:08:37;;;;;;;6.85;2.92;;;21.60;99.90;;;;;;5077875;28;20047;-64
2022/06/27 08:11:06;;;;;;;5.30;3.15;;;21.60;99.90;;;;;;5060288;28;20020;-65
2022/06/27 08:13:36;;;;;;;8.52;3.30;;;21.50;99.90;;;;;;5077722;28;20028;-65
2022/06/27 08:16:04;;;;;;;7.35;3.20;;;20.80;99.90;;;;;;5077921;28;20028;-64
2022/06/27 08:18:33;;;;;;;5.65;2.80;;;20.30;99.90;;;;;;5077611;28;20323;-64
2022/06/27 08:21:00;;;;;;;8.30;3.08;;;20.20;99.90;;;;;;5077541;28;20032;-65
2022/06/27 08:23:27;;;;;;;7.95;3.60;;;20.00;99.90;;;;;;5077534;28;20400;-64
2022/06/27 08:25:53;;;;;;;5.53;2.78;;;19.60;99.90;;;;;;5060183;28;20052;-64
2022/06/27 08:28:20;;;;;;;4.40;2.50;;;19.40;99.90;;;;;;5077594;28;20039;-66
2022/06/27 08:30:47;;;;;;;10.18;2.90;;;19.70;99.90;;;;;;5060363;28;20351;-65
2022/06/27 08:33:13;;;;;;;7.93;2.80;;;19.90;99.90;;;;;;5060191;28;20091;-65
2022/06/27 08:35:40;;;;;;;7.60;2.70;;;19.80;99.90;;;;;;5077398;28;20020;-65
2022/06/27 08:38:06;;;;;;;6.40;2.58;;;19.70;99.90;;;;;;5077324;28;20032;-65
2022/06/27 08:40:32;;;;;;;6.57;2.70;;;19.50;99.90;;;;;;5077638;28;20343;-65
2022/06/27 08:42:58;;;;;;;10.43;3.20;;;19.40;99.90;;;;;;5077322;28;20290;-65
2022/06/27 08:45:26;;;;;;;6.60;2.88;;;19.40;99.90;;;;;;5043424;28;20033;-64
2022/06/27 08:47:58;;;;;;;7.38;3.20;;;19.30;99.90;;;;;;5059799;28;20028;-65
2022/06/27 08:50:26;;;;;;;5.65;3.20;;;19.40;99.90;;;;;;5059546;28;20078;-64
2022/06/27 08:52:53;;;;;;;14.27;3.88;;;19.40;99.90;;;;;;5042949;28;20036;-62
2022/06/27 08:55:20;;;;;;;6.75;3.20;;;19.60;99.90;;;;;;5059558;28;20427;-65
2022/06/27 08:57:46;;;;;;;10.98;3.75;;;19.70;99.90;;;;;;5077012;28;20033;-65
2022/06/27 09:00:15;;;;;;;11.20;3.55;;;19.50;99.90;;;;;;5076944;28;20487;-65
2022/06/27 09:02:44;;;;;;;8.88;3.17;;;19.40;99.90;;;;;;5076827;28;20266;-66
2022/06/27 09:05:16;;;;;;;7.15;4.20;;;19.50;99.90;;;;;;5076890;28;20036;-67
2022/06/27 09:07:53;;;;;;;10.75;3.88;;;19.60;99.90;;;;;;5077178;28;20286;-69
2022/06/27 09:10:46;;;;;;;9.15;3.75;;;19.70;99.90;;;;;;5076971;28;20039;-69
2022/06/27 09:13:16;;;;;;;;;;;20.00;99.90;;;;;;5074237;28;20398;-69
2022/06/27 09:15:46;;;;;;;10.27;3.97;;;20.00;99.90;;;;;;5076928;28;20195;-69
2022/06/27 09:18:15;;;;;;;7.18;4.38;;;20.10;99.90;;;;;;5076588;28;20024;-67
2022/06/27 09:20:49;;;;;;;10.18;4.40;;;20.20;99.90;;;;;;5059737;28;20047;-67
2022/06/27 09:23:40;;;;;;;8.77;4.20;;;20.40;99.90;;;;;;5076918;28;20162;-68
2022/06/27 09:26:12;;;;;;;10.90;4.82;;;20.60;99.90;;;;;;5076649;28;20056;-68
2022/06/27 09:28:48;;;;;;;9.00;4.10;;;20.60;99.90;;;;;;5076676;28;20040;-68
2022/06/27 09:31:30;;;;;;;8.40;3.63;;;20.50;99.90;;;;;;5076710;28;20032;-68
2022/06/27 09:34:16;;;;;;;8.00;3.78;;;20.40;99.90;;;;;;5079441;28;20028;-67
2022/06/27 09:36:51;;;;;;;7.80;3.95;;;20.50;99.90;;;;;;5080985;28;20029;-68
2022/06/27 09:39:29;;;;;;;8.13;3.85;;;20.40;99.90;;;;;;5080754;28;20403;-68
2022/06/27 09:42:05;;;;;;;6.40;3.65;;;20.40;99.90;;;;;;5080699;28;20040;-68
2022/06/27 09:44:42;;;;;;;10.52;4.20;;;20.40;99.90;;;;;;5063212;28;20040;-68
2022/06/27 09:47:19;;;;;;;48.38;34.25;;;20.40;99.90;;;;;;5080500;28;20094;-62
2022/06/27 09:49:50;;;;;;;8.48;4.30;;;20.30;99.90;;;;;;5080324;28;20036;-65
2022/06/27 09:52:25;;;;;;;10.32;4.38;;;20.00;99.90;;;;;;5080454;28;20044;-66
2022/06/27 09:54:53;;;;;;;12.20;4.85;;;19.50;99.90;;;;;;5080534;28;20111;-67
2022/06/27 09:57:20;;;;;;;11.25;4.93;;;19.50;99.90;;;;;;5080227;28;20388;-68
2022/06/27 09:59:50;;;;;;;12.32;4.95;;;19.60;99.90;;;;;;5080481;28;20059;-68
2022/06/27 10:02:22;;;;;;;12.52;5.25;;;19.40;99.90;;;;;;5080521;28;20025;-69
2022/06/27 10:04:51;;;;;;;13.57;5.57;;;19.60;99.90;;;;;;5045931;28;20021;-68
2022/06/27 10:07:18;;;;;;;10.80;5.15;;;19.80;99.90;;;;;;5062993;28;20024;-70
2022/06/27 10:09:48;;;;;;;9.95;4.60;;;20.00;99.90;;;;;;5046012;28;20289;-70
2022/06/27 10:12:54;;;;;;;10.88;4.55;;;20.00;99.90;;;;;;5062710;28;20107;-69
2022/06/27 10:15:22;;;;;;;9.07;3.20;;;19.70;99.90;;;;;;5069489;28;20123;-70
2022/06/27 10:17:50;;;;;;;13.40;4.10;;;19.30;99.90;;;;;;5062588;28;20021;-70
2022/06/27 10:20:20;;;;;;;7.60;3.75;;;19.40;99.90;;;;;;5079818;28;20033;-70
2022/06/27 10:23:08;;;;;;;10.07;3.60;;;19.80;99.90;;;;;;5079726;28;20032;-70
2022/06/27 10:25:42;;;;;;;10.48;4.53;;;20.20;99.90;;;;;;5079546;28;20036;-69
2022/06/27 10:28:12;;;;;;;8.90;3.92;;;20.70;99.90;;;;;;5080028;28;20299;-69
2022/06/27 10:30:39;;;;;;;6.18;3.75;;;20.50;99.90;;;;;;5045701;28;20033;-69
2022/06/27 10:33:25;;;;;;;10.60;4.20;;;20.30;99.90;;;;;;5079571;28;20039;-69
2022/06/27 10:38:31;;;;;;;12.48;5.53;;;20.20;99.90;;;;;;5062133;28;20033;-70
2022/06/27 10:41:02;;;;;;;12.73;5.38;;;20.20;99.90;;;;;;5062037;28;20033;-68
2022/06/27 10:43:37;;;;;;;12.32;5.63;;;19.80;99.90;;;;;;5029026;28;20401;-69
2022/06/27 10:46:11;;;;;;;9.10;5.05;;;19.80;99.90;;;;;;5061232;28;20033;-69
2022/06/27 10:48:39;;;;;;;12.13;5.03;;;19.90;99.90;;;;;;5061900;28;20078;-69
2022/06/27 10:51:31;;;;;;;6.65;4.20;;;19.90;99.90;;;;;;5079223;28;20112;-68
2022/06/27 10:54:05;;;;;;;7.97;3.67;;;20.00;99.90;;;;;;5079436;28;20082;-69
2022/06/27 10:56:41;;;;;;;8.57;2.90;;;19.50;99.90;;;;;;5061811;28;20075;-69
2022/06/27 10:59:13;;;;;;;6.40;2.70;;;19.00;99.90;;;;;;5079627;28;20032;-68
2022/06/27 11:01:41;;;;;;;7.30;2.28;;;19.30;99.90;;;;;;5079741;28;20035;-69
2022/06/27 11:04:07;;;;;;;4.93;2.30;;;19.70;99.90;;;;;;5061795;28;20029;-69
2022/06/27 11:06:33;;;;;;;4.05;1.80;;;19.70;99.90;;;;;;5078995;28;20089;-69
2022/06/27 11:08:58;;;;;;;2.85;1.73;;;19.70;99.90;;;;;;5079020;28;20032;-68
2022/06/27 11:11:26;;;;;;;5.78;2.33;;;19.90;99.90;;;;;;5061962;28;20043;-68
2022/06/27 11:13:59;;;;;;;5.25;2.22;;;20.10;99.90;;;;;;5061872;28;20097;-67
2022/06/27 11:16:30;;;;;;;4.70;2.20;;;19.90;99.90;;;;;;5079493;28;20033;-69
2022/06/27 11:19:00;;;;;;;4.03;2.45;;;20.00;99.90;;;;;;5061663;28;20016;-68
2022/06/27 11:21:38;;;;;;;3.65;2.22;;;20.30;99.90;;;;;;5061379;28;20033;-67
2022/06/27 11:24:06;;;;;;;6.43;3.10;;;20.60;99.90;;;;;;5061501;28;20044;-68
2022/06/27 11:26:33;;;;;;;7.00;3.20;;;20.30;99.90;;;;;;5078420;28;20048;-67
2022/06/27 11:31:59;;;;;;;6.10;2.70;;;20.30;99.90;;;;;;5046799;28;20358;-68
2022/06/27 11:34:33;;;;;;;6.78;2.63;;;19.70;99.90;;;;;;5078338;28;20029;-66
2022/06/27 11:37:02;;;;;;;5.45;2.83;;;19.30;99.90;;;;;;5078470;28;20033;-65
2022/06/27 11:39:32;;;;;;;7.40;2.97;;;19.10;99.90;;;;;;5078235;28;20093;-63
2022/06/27 11:42:02;;;;;;;6.05;3.65;;;19.10;99.90;;;;;;5061174;28;20107;-66
2022/06/27 11:44:29;;;;;;;7.72;3.50;;;19.30;99.90;;;;;;5078236;28;20400;-66
2022/06/27 11:47:25;;;;;;;8.85;3.90;;;19.00;99.90;;;;;;5060795;28;20100;-66
2022/06/27 11:50:07;;;;;;;8.93;3.85;;;18.80;99.90;;;;;;5076802;28;20041;-69
2022/06/27 11:52:49;;;;;;;6.05;4.30;;;18.80;99.90;;;;;;5078554;28;20054;-69
2022/06/27 11:55:24;;;;;;;11.75;4.35;;;18.70;99.90;;;;;;5077850;28;20347;-62
2022/06/27 11:57:56;;;;;;;6.35;3.88;;;18.20;99.90;;;;;;5078510;28;20116;-61
2022/06/27 12:00:24;;;;;;;8.60;4.50;;;18.20;99.90;;;;;;5060484;28;20127;-62
2022/06/27 12:03:01;;;;;;;9.75;4.63;;;18.20;99.90;;;;;;5077830;28;20104;-62
2022/06/27 12:05:27;;;;;;;8.38;5.07;;;18.30;99.90;;;;;;5078616;28;20314;-62
2022/06/27 12:07:58;;;;;;;10.45;4.97;;;18.40;99.90;;;;;;5060582;28;20426;-64
2022/06/27 12:10:44;;;;;;;9.82;5.38;;;18.30;99.90;;;;;;5077541;28;20082;-67
2022/06/27 12:13:16;;;;;;;9.90;3.63;;;18.30;99.90;;;;;;5078535;28;20035;-67
2022/06/27 12:15:46;;;;;;;5.87;2.10;;;18.20;99.90;;;;;;5061081;28;20346;-67
2022/06/27 12:18:12;;;;;;;7.25;2.35;;;17.40;99.90;;;;;;5077894;28;20029;-66
2022/06/27 12:20:41;;;;;;;6.90;2.00;;;16.80;99.90;;;;;;5077667;28;20038;-63
2022/06/27 12:23:07;;;;;;;11.85;2.20;;;16.40;99.90;;;;;;5077738;28;20292;-62
2022/06/27 12:25:36;;;;;;;6.70;1.83;;;16.20;99.90;;;;;;5077610;28;20362;-66
2022/06/27 12:28:06;;;;;;;6.07;2.00;;;16.30;99.90;;;;;;5077445;28;20418;-68
2022/06/27 12:30:33;;;;;;;8.45;2.65;;;16.40;99.90;;;;;;5077498;28;20090;-67
2022/06/27 12:32:59;;;;;;;5.43;2.50;;;16.30;99.90;;;;;;5077816;28;20032;-68
2022/06/27 12:35:25;;;;;;;7.47;3.70;;;16.30;99.90;;;;;;5061262;28;20415;-68
2022/06/27 12:37:50;;;;;;;9.45;4.13;;;16.50;99.90;;;;;;5077717;28;20044;-69
2022/06/27 12:40:16;;;;;;;6.57;3.20;;;17.10;99.90;;;;;;5043742;28;20028;-68
2022/06/27 12:42:42;;;;;;;9.55;3.38;;;17.40;99.90;;;;;;5060679;28;20312;-70
2022/06/27 12:45:08;;;;;;;7.55;3.30;;;17.10;99.90;;;;;;5078151;28;20028;-71
2022/06/27 12:47:34;;;;;;;4.88;2.45;;;17.10;99.90;;;;;;5077922;28;20037;-69
2022/06/27 12:50:00;;;;;;;9.45;3.35;;;17.10;99.90;;;;;;5077581;28;20036;-69
2022/06/27 12:52:27;;;;;;;4.22;2.30;;;17.10;99.90;;;;;;5061645;28;20055;-70
2022/06/27 12:54:53;;;;;;;5.60;2.33;;;17.00;99.90;;;;;;5060762;28;20314;-66
2022/06/27 12:57:19;;;;;;;7.53;2.30;;;16.70;99.90;;;;;;5079072;28;20040;-68
2022/06/27 12:59:44;;;;;;;7.45;2.60;;;16.60;99.90;;;;;;5079094;28;20059;-67
2022/06/27 13:02:11;;;;;;;4.53;2.00;;;16.40;99.90;;;;;;5060526;28;20032;-68
2022/06/27 13:04:37;;;;;;;6.50;2.38;;;16.20;99.90;;;;;;5077881;28;20111;-68
2022/06/27 13:07:03;;;;;;;8.95;2.17;;;16.00;99.90;;;;;;5077101;28;20332;-70